createdAt,value
2024-03-11T00:00:44.869Z,3.90
2024-03-11T00:03:13.512Z,1.70
2024-03-11T00:05:44.453Z,1.90
2024-03-11T00:08:18.066Z,2.17
2024-03-11T00:10:47.095Z,2.90
2024-03-11T00:13:17.954Z,1.40
2024-03-11T00:15:46.540Z,2.03
2024-03-11T00:18:15.609Z,2.77
2024-03-11T00:20:44.520Z,1.73
2024-03-11T00:23:14.424Z,1.10
2024-03-11T00:25:42.682Z,1.73
2024-03-11T00:28:11.210Z,1.60
2024-03-11T00:30:39.702Z,1.23
2024-03-11T00:33:10.723Z,1.80
2024-03-11T00:35:39.883Z,1.70
2024-03-11T00:38:09.647Z,1.23
2024-03-11T00:40:39.566Z,1.30
2024-03-11T00:43:07.856Z,1.33
2024-03-11T00:45:36.024Z,1.13
2024-03-11T00:48:05.068Z,1.30
2024-03-11T00:50:34.316Z,2.20
2024-03-11T00:53:02.799Z,1.00
2024-03-11T00:55:30.990Z,1.20
2024-03-11T00:58:01.024Z,1.47
2024-03-11T01:00:29.239Z,1.50
2024-03-11T01:02:58.928Z,2.00
2024-03-11T01:05:27.103Z,1.40
2024-03-11T01:07:55.307Z,1.10
2024-03-11T01:10:23.534Z,1.77
2024-03-11T01:12:53.103Z,1.23
2024-03-11T01:15:23.142Z,1.20
2024-03-11T01:17:51.413Z,1.00
2024-03-11T01:20:21.621Z,2.07
2024-03-11T01:22:49.951Z,1.10
2024-03-11T01:25:21.310Z,0.70
2024-03-11T01:27:50.377Z,1.10
2024-03-11T01:30:22.698Z,1.67
2024-03-11T01:32:51.297Z,1.57
2024-03-11T01:35:20.093Z,1.23
2024-03-11T01:37:48.309Z,1.00
2024-03-11T01:40:16.718Z,0.97
2024-03-11T01:42:45.606Z,1.70
2024-03-11T01:45:15.287Z,1.07
2024-03-11T01:47:45.874Z,1.93
2024-03-11T01:50:16.287Z,0.80
2024-03-11T01:52:50.700Z,1.17
2024-03-11T01:55:20.453Z,2.50
2024-03-11T01:57:52.758Z,0.80
2024-03-11T02:00:23.496Z,1.70
2024-03-11T02:02:55.144Z,1.07
2024-03-11T02:05:25.423Z,0.80
2024-03-11T02:07:59.931Z,1.13
2024-03-11T02:10:28.474Z,0.70
2024-03-11T02:12:59.876Z,1.40
2024-03-11T02:15:28.808Z,0.73
2024-03-11T02:17:59.270Z,0.70
2024-03-11T02:20:29.739Z,0.57
2024-03-11T02:22:59.385Z,1.20
2024-03-11T02:25:30.492Z,0.73
2024-03-11T02:28:00.401Z,0.63
2024-03-11T02:30:29.314Z,1.17
2024-03-11T02:32:58.248Z,1.27
2024-03-11T02:35:27.355Z,0.80
2024-03-11T02:37:55.928Z,0.87
2024-03-11T02:40:27.945Z,0.60
2024-03-11T02:42:58.688Z,0.70
2024-03-11T02:45:27.843Z,1.60
2024-03-11T02:47:56.486Z,0.80
2024-03-11T02:50:25.328Z,1.33
2024-03-11T02:52:53.666Z,0.80
2024-03-11T02:55:23.723Z,0.70
2024-03-11T02:57:52.501Z,0.80
2024-03-11T03:00:22.976Z,0.83
2024-03-11T03:02:52.231Z,0.90
2024-03-11T03:05:21.242Z,0.87
2024-03-11T03:07:49.689Z,1.00
2024-03-11T03:10:18.808Z,0.73
2024-03-11T03:12:47.422Z,1.00
2024-03-11T03:15:15.917Z,0.50
2024-03-11T03:17:45.603Z,0.93
2024-03-11T03:20:14.139Z,1.07
2024-03-11T03:22:42.698Z,0.63
2024-03-11T03:25:11.482Z,1.20
2024-03-11T03:27:40.205Z,0.90
2024-03-11T03:30:11.049Z,0.90
2024-03-11T03:32:40.026Z,0.80
2024-03-11T03:35:11.314Z,0.63
2024-03-11T03:37:40.859Z,1.83
2024-03-11T03:40:17.897Z,0.70
2024-03-11T03:42:48.469Z,0.60
2024-03-11T03:45:17.185Z,0.50
2024-03-11T03:47:46.509Z,0.80
2024-03-11T03:50:16.348Z,0.60
2024-03-11T03:52:45.541Z,0.50
2024-03-11T03:55:13.904Z,0.70
2024-03-11T03:57:43.943Z,0.73
2024-03-11T04:00:16.888Z,0.70
2024-03-11T04:02:45.202Z,0.50
2024-03-11T04:05:15.265Z,0.63
2024-03-11T04:07:43.679Z,1.23
2024-03-11T04:10:14.684Z,0.60
2024-03-11T04:12:46.363Z,0.50
2024-03-11T04:15:15.504Z,0.97
2024-03-11T04:17:45.544Z,0.80
2024-03-11T04:20:16.413Z,0.60
2024-03-11T04:22:46.038Z,0.83
2024-03-11T04:25:18.903Z,0.70
2024-03-11T04:27:48.426Z,0.77
2024-03-11T04:30:17.785Z,1.03
2024-03-11T04:32:53.161Z,1.20
2024-03-11T04:35:26.737Z,0.97
2024-03-11T04:37:55.882Z,1.10
2024-03-11T04:40:26.198Z,0.87
2024-03-11T04:42:55.528Z,1.63
2024-03-11T04:45:24.269Z,0.90
2024-03-11T04:47:52.803Z,1.40
2024-03-11T04:50:26.391Z,0.83
2024-03-11T04:52:58.418Z,4.20
2024-03-11T04:55:28.280Z,1.03
2024-03-11T04:57:56.943Z,1.33
2024-03-11T05:00:28.025Z,1.57
2024-03-11T05:02:57.400Z,1.10
2024-03-11T05:05:26.607Z,1.23
2024-03-11T05:07:56.899Z,1.00
2024-03-11T05:10:25.478Z,1.23
2024-03-11T05:12:53.707Z,1.27
2024-03-11T05:15:22.906Z,1.50
2024-03-11T05:17:52.099Z,1.23
2024-03-11T05:20:20.776Z,1.37
2024-03-11T05:22:50.660Z,0.83
2024-03-11T05:25:20.686Z,1.20
2024-03-11T05:27:52.015Z,1.20
2024-03-11T05:30:20.423Z,0.83
2024-03-11T05:32:49.713Z,1.20
2024-03-11T05:35:21.977Z,1.03
2024-03-11T05:37:52.644Z,1.20
2024-03-11T05:40:22.211Z,0.93
2024-03-11T05:42:50.566Z,1.50
2024-03-11T05:45:19.033Z,1.50
2024-03-11T05:47:48.046Z,0.73
2024-03-11T05:50:17.887Z,1.00
2024-03-11T05:52:47.422Z,1.57
2024-03-11T05:55:15.934Z,1.60
2024-03-11T05:57:45.854Z,1.77
2024-03-11T06:00:18.013Z,1.27
2024-03-11T06:02:48.122Z,1.33
2024-03-11T06:05:17.985Z,6.60
2024-03-11T06:07:46.327Z,1.20
2024-03-11T06:10:15.091Z,1.50
2024-03-11T06:12:44.603Z,0.90
2024-03-11T06:15:14.256Z,1.37
2024-03-11T06:17:43.009Z,1.57
2024-03-11T06:20:15.183Z,4.20
2024-03-11T06:22:44.680Z,1.10
2024-03-11T06:25:13.514Z,2.70
2024-03-11T06:27:42.212Z,0.80
2024-03-11T06:30:10.946Z,3.03
2024-03-11T06:32:42.615Z,1.57
2024-03-11T06:35:14.433Z,1.40
2024-03-11T06:40:18.208Z,3.10
2024-03-11T06:42:49.819Z,3.00
2024-03-11T06:45:18.506Z,1.30
2024-03-11T06:47:48.238Z,2.70
2024-03-11T06:50:16.947Z,5.27
2024-03-11T06:52:46.746Z,3.83
2024-03-11T06:55:17.798Z,1.80
2024-03-11T06:57:46.463Z,1.37
2024-03-11T07:00:19.777Z,3.00
2024-03-11T07:02:50.423Z,1.93
2024-03-11T07:05:27.413Z,2.70
2024-03-11T07:07:57.244Z,2.33
2024-03-11T07:10:24.961Z,2.17
2024-03-11T07:12:53.171Z,2.53
2024-03-11T07:15:21.399Z,1.20
2024-03-11T07:17:50.979Z,1.60
2024-03-11T07:20:19.812Z,1.30
2024-03-11T07:22:49.019Z,7.80
2024-03-11T07:25:18.985Z,2.20
2024-03-11T07:27:48.590Z,2.27
2024-03-11T07:30:20.110Z,2.00
2024-03-11T07:32:48.353Z,1.73
2024-03-11T07:35:17.938Z,2.00
2024-03-11T07:37:46.162Z,1.70
2024-03-11T07:40:14.724Z,1.37
2024-03-11T07:42:43.835Z,2.37
2024-03-11T07:45:13.364Z,4.27
2024-03-11T07:47:42.356Z,1.67
2024-03-11T07:50:12.599Z,1.77
2024-03-11T07:52:43.604Z,1.50
2024-03-11T07:55:12.010Z,1.70
2024-03-11T07:57:40.861Z,3.63
2024-03-11T08:00:11.283Z,1.53
2024-03-11T08:02:39.514Z,1.87
2024-03-11T08:05:14.398Z,1.60
2024-03-11T08:07:45.633Z,2.00
2024-03-11T08:10:14.490Z,3.20
2024-03-11T08:12:44.153Z,1.20
2024-03-11T08:15:13.802Z,1.10
2024-03-11T08:17:44.192Z,3.00
2024-03-11T08:20:17.533Z,1.70
2024-03-11T08:22:49.037Z,1.17
2024-03-11T08:25:18.450Z,2.40
2024-03-11T08:27:47.274Z,3.10
2024-03-11T08:30:17.208Z,2.43
2024-03-11T08:32:45.724Z,1.20
2024-03-11T08:35:15.826Z,1.93
2024-03-11T08:37:44.173Z,0.97
2024-03-11T08:40:16.184Z,1.00
2024-03-11T08:42:46.040Z,1.10
2024-03-11T08:45:14.576Z,1.63
2024-03-11T08:47:43.090Z,1.53
2024-03-11T08:50:13.957Z,1.20
2024-03-11T08:52:45.269Z,0.97
2024-03-11T08:55:17.115Z,1.93
2024-03-11T08:57:47.087Z,1.83
2024-03-11T09:00:17.722Z,1.60
2024-03-11T09:02:47.077Z,1.10
2024-03-11T09:05:19.999Z,0.90
2024-03-11T09:07:50.137Z,1.17
2024-03-11T09:10:20.365Z,1.00
2024-03-11T09:12:50.514Z,0.97
2024-03-11T09:15:20.620Z,0.90
2024-03-11T09:17:52.142Z,1.10
2024-03-11T09:20:23.425Z,2.23
2024-03-11T09:22:57.421Z,1.30
2024-03-11T09:25:28.718Z,0.90
2024-03-11T09:28:02.894Z,0.90
2024-03-11T09:30:34.658Z,1.50
2024-03-11T09:33:03.270Z,1.07
2024-03-11T09:35:33.211Z,2.70
2024-03-11T09:38:01.813Z,1.63
2024-03-11T09:40:32.775Z,1.80
2024-03-11T09:43:02.800Z,2.30
2024-03-11T09:45:36.469Z,1.20
2024-03-11T09:48:07.034Z,0.70
2024-03-11T09:50:38.576Z,1.30
2024-03-11T09:53:09.296Z,1.47
2024-03-11T09:55:40.439Z,1.57
2024-03-11T09:58:12.723Z,0.70
2024-03-11T10:00:51.917Z,0.97
2024-03-11T10:03:23.992Z,1.30
2024-03-11T10:05:58.823Z,0.80
2024-03-11T10:08:28.272Z,1.80
2024-03-11T10:11:14.563Z,0.63
2024-03-11T10:13:43.232Z,1.10
2024-03-11T10:16:18.596Z,1.73
2024-03-11T10:19:02.493Z,0.60
2024-03-11T10:21:33.285Z,1.03
2024-03-11T10:24:02.990Z,0.60
2024-03-11T10:26:35.797Z,1.13
2024-03-11T10:29:04.530Z,1.20
2024-03-11T10:31:34.701Z,0.80
2024-03-11T10:34:13.934Z,0.70
2024-03-11T10:36:46.949Z,0.87
2024-03-11T10:39:32.090Z,0.90
2024-03-11T10:42:03.392Z,0.63
2024-03-11T10:44:31.643Z,0.63
2024-03-11T10:47:16.064Z,0.87
2024-03-11T10:49:48.745Z,0.77
2024-03-11T10:52:21.812Z,4.10
2024-03-11T10:55:02.986Z,0.60
2024-03-11T10:57:45.215Z,0.77
2024-03-11T11:00:23.021Z,0.50
2024-03-11T11:02:59.210Z,0.80
2024-03-11T11:05:34.978Z,1.00
2024-03-11T11:08:05.341Z,0.77
2024-03-11T11:10:37.846Z,0.60
2024-03-11T11:13:08.755Z,1.20
2024-03-11T11:15:38.992Z,1.43
2024-03-11T11:18:11.018Z,0.80
2024-03-11T11:20:40.185Z,0.90
2024-03-11T11:23:12.031Z,1.37
2024-03-11T11:25:45.827Z,0.80
2024-03-11T11:28:27.853Z,0.70
2024-03-11T11:31:16.233Z,0.80
2024-03-11T11:33:51.210Z,2.57
2024-03-11T11:36:53.159Z,1.00
2024-03-11T11:39:37.072Z,1.20
2024-03-11T11:42:07.993Z,0.80
2024-03-11T11:44:53.025Z,0.70
2024-03-11T11:47:25.815Z,0.80
2024-03-11T11:49:54.258Z,5.73
2024-03-11T11:52:26.148Z,4.03
2024-03-11T11:54:56.880Z,3.17
2024-03-11T11:57:26.267Z,1.23
2024-03-11T12:00:00.566Z,1.80
2024-03-11T12:02:31.189Z,0.93
2024-03-11T12:05:01.723Z,1.23
2024-03-11T12:07:31.102Z,2.10
2024-03-11T12:10:01.165Z,1.77
2024-03-11T12:12:31.481Z,0.60
2024-03-11T12:15:04.394Z,1.77
2024-03-11T12:17:33.845Z,4.20
2024-03-11T12:20:16.132Z,0.83
2024-03-11T12:22:44.987Z,1.60
2024-03-11T12:25:15.422Z,1.10
2024-03-11T12:27:45.048Z,1.07
2024-03-11T12:30:20.914Z,1.40
2024-03-11T12:32:59.344Z,1.53
2024-03-11T12:35:29.580Z,1.97
2024-03-11T12:37:59.864Z,2.57
2024-03-11T12:40:30.992Z,1.83
2024-03-11T12:43:02.841Z,2.57
2024-03-11T12:45:46.565Z,2.07
2024-03-11T12:48:15.882Z,5.57
2024-03-11T12:50:45.477Z,1.40
2024-03-11T12:53:15.088Z,2.70
2024-03-11T12:55:44.160Z,3.90
2024-03-11T12:58:16.723Z,2.10
2024-03-11T13:00:48.060Z,1.97
2024-03-11T13:03:20.888Z,1.43
2024-03-11T13:06:01.886Z,1.10
2024-03-11T13:08:31.355Z,2.37
2024-03-11T13:11:06.014Z,1.07
2024-03-11T13:13:36.720Z,2.27
2024-03-11T13:16:08.950Z,1.63
2024-03-11T13:18:40.423Z,9.50
2024-03-11T13:21:09.263Z,4.10
2024-03-11T13:23:38.961Z,1.93
2024-03-11T13:26:10.907Z,2.70
2024-03-11T13:28:39.972Z,3.07
2024-03-11T13:31:13.907Z,0.83
2024-03-11T13:33:44.005Z,0.87
2024-03-11T13:36:13.476Z,0.90
2024-03-11T13:38:43.235Z,3.17
2024-03-11T13:41:13.197Z,1.40
2024-03-11T13:43:43.064Z,1.97
2024-03-11T13:46:15.480Z,1.27
2024-03-11T13:48:45.048Z,1.20
2024-03-11T13:51:15.245Z,0.80
2024-03-11T13:53:44.434Z,1.60
2024-03-11T13:56:12.726Z,2.40
2024-03-11T13:58:42.345Z,1.90
2024-03-11T14:01:12.248Z,1.80
2024-03-11T14:03:42.307Z,1.10
2024-03-11T14:06:14.145Z,0.90
2024-03-11T14:08:44.083Z,1.67
2024-03-11T14:11:12.872Z,0.90
2024-03-11T14:13:42.525Z,1.33
2024-03-11T14:16:13.262Z,1.00
2024-03-11T14:18:43.720Z,1.50
2024-03-11T14:21:11.956Z,0.73
2024-03-11T14:23:40.768Z,0.90
2024-03-11T14:26:12.302Z,1.10
2024-03-11T14:28:43.400Z,1.63
2024-03-11T14:31:14.057Z,2.07
2024-03-11T14:33:43.845Z,0.70
2024-03-11T14:36:12.734Z,3.90
2024-03-11T14:38:44.599Z,0.60
2024-03-11T14:41:13.729Z,0.50
2024-03-11T14:43:45.170Z,1.43
2024-03-11T14:46:16.847Z,0.97
2024-03-11T14:48:48.452Z,0.90
2024-03-11T14:51:22.602Z,1.53
2024-03-11T14:53:52.927Z,1.70
2024-03-11T14:56:21.677Z,1.97
2024-03-11T14:58:50.376Z,1.33
2024-03-11T15:01:20.755Z,0.73
2024-03-11T15:03:49.840Z,1.23
2024-03-11T15:06:20.683Z,3.93
2024-03-11T15:08:51.185Z,2.30
2024-03-11T15:11:19.692Z,2.30
2024-03-11T15:13:48.141Z,1.50
2024-03-11T15:16:21.950Z,1.27
2024-03-11T15:18:54.510Z,1.07
2024-03-11T15:21:24.290Z,3.57
2024-03-11T15:23:53.463Z,0.80
2024-03-11T15:26:24.165Z,1.93
2024-03-11T15:28:54.349Z,1.13
2024-03-11T15:31:26.029Z,1.63
2024-03-11T15:33:55.389Z,0.90
2024-03-11T15:36:23.883Z,2.20
2024-03-11T15:38:53.975Z,1.30
2024-03-11T15:41:25.273Z,1.00
2024-03-11T15:43:53.510Z,1.60
2024-03-11T15:46:23.659Z,1.90
2024-03-11T15:48:53.218Z,1.53
2024-03-11T15:51:21.822Z,0.77
2024-03-11T15:53:51.478Z,0.70
2024-03-11T15:56:20.381Z,1.10
2024-03-11T15:58:48.850Z,0.90
2024-03-11T16:01:23.464Z,1.20
2024-03-11T16:03:57.212Z,1.20
2024-03-11T16:06:26.835Z,4.13
2024-03-11T16:08:55.309Z,0.93
2024-03-11T16:11:23.210Z,1.70
2024-03-11T16:13:53.025Z,0.50
2024-03-11T16:16:22.229Z,2.50
2024-03-11T16:18:50.742Z,1.90
2024-03-11T16:21:19.453Z,2.40
2024-03-11T16:23:48.537Z,5.60
2024-03-11T16:26:17.417Z,3.40
2024-03-11T16:28:45.614Z,2.97
2024-03-11T16:31:13.447Z,2.27
2024-03-11T16:33:42.147Z,1.23
2024-03-11T16:36:12.044Z,5.90
2024-03-11T16:38:46.187Z,1.60
2024-03-11T16:41:17.933Z,1.90
2024-03-11T16:43:47.023Z,1.23
2024-03-11T16:46:16.137Z,2.90
2024-03-11T16:48:46.813Z,2.17
2024-03-11T16:51:18.568Z,3.17
2024-03-11T16:53:48.210Z,2.10
2024-03-11T16:56:18.075Z,1.17
2024-03-11T16:58:47.652Z,4.53
2024-03-11T17:01:17.017Z,2.40
2024-03-11T17:03:46.522Z,0.93
2024-03-11T17:06:15.423Z,0.80
2024-03-11T17:08:42.856Z,1.43
2024-03-11T17:11:13.787Z,1.10
2024-03-11T17:13:41.009Z,1.33
2024-03-11T17:16:09.751Z,3.80
2024-03-11T17:18:37.228Z,0.60
2024-03-11T17:21:11.012Z,1.23
2024-03-11T17:23:39.004Z,1.30
2024-03-11T17:26:09.788Z,1.50
2024-03-11T17:28:41.331Z,1.10
2024-03-11T17:31:13.232Z,1.20
2024-03-11T17:33:41.658Z,1.60
2024-03-11T17:36:09.897Z,1.70
2024-03-11T17:38:37.184Z,1.70
2024-03-11T17:41:05.616Z,2.17
2024-03-11T17:43:33.262Z,2.47
2024-03-11T17:46:02.996Z,2.90
2024-03-11T17:48:32.731Z,2.00
2024-03-11T17:51:07.022Z,2.00
2024-03-11T17:53:36.989Z,2.17
2024-03-11T17:56:06.131Z,2.53
2024-03-11T17:58:40.710Z,1.73
2024-03-11T18:01:12.373Z,2.30
2024-03-11T18:03:41.328Z,2.60
2024-03-11T18:06:10.291Z,1.87
2024-03-11T18:08:39.350Z,1.90
2024-03-11T18:11:07.895Z,2.50
2024-03-11T18:13:37.002Z,3.13
2024-03-11T18:16:07.013Z,3.10
2024-03-11T18:18:36.401Z,2.70
2024-03-11T18:21:05.963Z,3.10
2024-03-11T18:23:33.389Z,3.30
2024-03-11T18:26:01.635Z,3.47
2024-03-11T18:28:32.604Z,3.57
2024-03-11T18:31:01.434Z,3.40
2024-03-11T18:33:30.883Z,4.00
2024-03-11T18:36:00.719Z,3.40
2024-03-11T18:38:31.537Z,2.53
2024-03-11T18:40:59.760Z,2.73
2024-03-11T18:43:29.020Z,3.47
2024-03-11T18:45:57.418Z,3.57
2024-03-11T18:48:27.282Z,2.60
2024-03-11T18:50:55.620Z,2.70
2024-03-11T18:53:25.434Z,3.93
2024-03-11T18:55:53.617Z,2.40
2024-03-11T18:58:22.034Z,2.37
2024-03-11T19:00:50.955Z,2.70
2024-03-11T19:03:19.291Z,2.70
2024-03-11T19:05:47.596Z,1.90
2024-03-11T19:08:16.931Z,2.13
2024-03-11T19:10:46.599Z,2.20
2024-03-11T19:13:14.811Z,1.90
2024-03-11T19:15:44.464Z,2.10
2024-03-11T19:18:13.576Z,2.70
2024-03-11T19:20:43.435Z,6.20
2024-03-11T19:23:11.726Z,11.70
2024-03-11T19:25:43.857Z,13.43
2024-03-11T19:28:13.787Z,16.53
2024-03-11T19:30:43.016Z,15.53
2024-03-11T19:33:13.297Z,14.27
2024-03-11T19:35:42.143Z,13.00
2024-03-11T19:38:44.130Z,15.80
2024-03-11T19:41:19.091Z,13.10
2024-03-11T19:44:20.979Z,12.33
2024-03-11T19:47:39.376Z,10.67
2024-03-11T19:50:42.903Z,10.93
2024-03-11T19:53:47.182Z,11.93
2024-03-11T19:57:01.370Z,8.47
2024-03-11T20:00:27.562Z,9.13
2024-03-11T20:03:16.871Z,7.50
2024-03-11T20:06:25.886Z,8.03
2024-03-11T20:09:22.731Z,7.50
2024-03-11T20:12:25.261Z,9.87
2024-03-11T20:14:55.966Z,8.17
2024-03-11T20:17:39.025Z,6.63
2024-03-11T20:20:48.371Z,7.20
2024-03-11T20:24:19.757Z,6.90
2024-03-11T20:26:56.648Z,7.40
2024-03-11T20:29:29.935Z,6.43
2024-03-11T20:32:03.308Z,5.63
2024-03-11T20:34:31.665Z,6.57
2024-03-11T20:36:59.896Z,7.17
2024-03-11T20:39:28.585Z,6.80
2024-03-11T20:41:57.401Z,5.40
2024-03-11T20:44:26.394Z,7.10
2024-03-11T20:46:54.575Z,4.87
2024-03-11T20:49:24.352Z,6.43
2024-03-11T20:51:52.649Z,6.00
2024-03-11T20:54:21.102Z,5.07
2024-03-11T20:56:49.393Z,5.70
2024-03-11T20:59:17.584Z,4.70
2024-03-11T21:01:45.920Z,5.07
2024-03-11T21:04:14.227Z,4.33
2024-03-11T21:06:43.989Z,6.10
2024-03-11T21:09:13.505Z,4.70
2024-03-11T21:11:42.483Z,5.60
2024-03-11T21:14:10.737Z,4.27
2024-03-11T21:16:42.066Z,4.80
2024-03-11T21:19:20.133Z,5.20
2024-03-11T21:22:04.964Z,4.73
2024-03-11T21:24:49.448Z,3.50
2024-03-11T21:27:25.151Z,3.60
2024-03-11T21:29:56.679Z,3.77
2024-03-11T21:32:26.408Z,4.53
2024-03-11T21:34:54.733Z,4.23
2024-03-11T21:37:24.807Z,3.53
2024-03-11T21:39:54.440Z,4.53
2024-03-11T21:42:24.115Z,3.73
2024-03-11T21:44:53.450Z,3.50
2024-03-11T21:47:23.649Z,4.17
2024-03-11T21:49:52.535Z,3.77
2024-03-11T21:52:20.843Z,3.40
2024-03-11T21:54:50.958Z,3.50
2024-03-11T21:57:21.389Z,4.10
2024-03-11T21:59:51.782Z,4.50
2024-03-11T22:02:21.019Z,3.87
2024-03-11T22:04:51.879Z,3.87
2024-03-11T22:07:20.586Z,4.43
2024-03-11T22:09:55.212Z,5.07
2024-03-11T22:12:23.496Z,4.30
2024-03-11T22:14:51.776Z,3.67
2024-03-11T22:17:19.989Z,3.93
2024-03-11T22:19:48.171Z,3.93
2024-03-11T22:22:16.345Z,3.33
2024-03-11T22:24:44.859Z,8.40
2024-03-11T22:27:14.525Z,3.73
2024-03-11T22:29:42.723Z,5.13
2024-03-11T22:32:13.017Z,3.90
2024-03-11T22:34:41.535Z,5.40
2024-03-11T22:37:09.875Z,4.20
2024-03-11T22:39:38.279Z,4.77
2024-03-11T22:42:11.039Z,3.93
2024-03-11T22:44:41.147Z,3.30
2024-03-11T22:47:09.400Z,4.93
2024-03-11T22:49:38.908Z,3.60
2024-03-11T22:52:08.718Z,2.90
2024-03-11T22:54:38.666Z,5.20
2024-03-11T22:57:07.967Z,5.20
2024-03-11T22:59:36.291Z,3.67
2024-03-11T23:02:09.307Z,3.20
2024-03-11T23:04:38.867Z,5.20
2024-03-11T23:07:08.690Z,3.90
2024-03-11T23:09:36.941Z,5.00
2024-03-11T23:12:05.820Z,3.10
2024-03-11T23:14:34.823Z,3.33
2024-03-11T23:17:05.290Z,3.73
2024-03-11T23:19:35.096Z,3.50
2024-03-11T23:22:03.376Z,4.10
2024-03-11T23:24:33.801Z,4.63
2024-03-11T23:27:02.098Z,4.00
2024-03-11T23:29:30.282Z,3.13
2024-03-11T23:32:01.189Z,3.30
2024-03-11T23:34:29.358Z,3.13
2024-03-11T23:36:59.000Z,3.43
2024-03-11T23:39:28.782Z,3.20
2024-03-11T23:41:57.017Z,3.37
2024-03-11T23:44:26.557Z,2.83
2024-03-11T23:46:54.714Z,4.00
2024-03-11T23:49:25.058Z,2.87
2024-03-11T23:51:53.549Z,3.90
2024-03-11T23:54:23.206Z,3.03
2024-03-11T23:56:52.716Z,3.10
2024-03-11T23:59:21.031Z,3.00
